createdAt,value
2023-05-09T00:02:24.951Z,47.15
2023-05-09T00:04:53.252Z,47.36
2023-05-09T00:07:21.774Z,47.74
2023-05-09T00:09:50.062Z,46.85
2023-05-09T00:12:18.286Z,47.56
2023-05-09T00:14:46.924Z,47.57
2023-05-09T00:17:16.602Z,47.70
2023-05-09T00:19:45.376Z,48.03
2023-05-09T00:22:13.802Z,47.64
2023-05-09T00:24:42.201Z,47.97
2023-05-09T00:27:11.154Z,48.10
2023-05-09T00:29:39.373Z,48.08
2023-05-09T00:32:07.712Z,48.20
2023-05-09T00:34:36.107Z,48.16
2023-05-09T00:37:04.319Z,48.35
2023-05-09T00:39:32.571Z,48.64
2023-05-09T00:42:00.781Z,48.92
2023-05-09T00:44:29.007Z,48.67
2023-05-09T00:46:57.350Z,48.65
2023-05-09T00:49:25.601Z,48.48
2023-05-09T00:51:55.622Z,48.68
2023-05-09T00:54:23.956Z,48.79
2023-05-09T00:56:52.876Z,49.01
2023-05-09T00:59:21.775Z,49.01
2023-05-09T01:01:50.106Z,49.03
2023-05-09T01:04:18.402Z,48.95
2023-05-09T01:07:29.216Z,48.75
2023-05-09T01:10:15.582Z,48.56
2023-05-09T01:12:55.787Z,48.81
2023-05-09T01:16:02.473Z,48.64
2023-05-09T01:19:03.310Z,48.74
2023-05-09T01:21:34.273Z,48.80
2023-05-09T01:24:05.631Z,48.83
2023-05-09T01:26:43.952Z,48.85
2023-05-09T01:29:18.584Z,48.67
2023-05-09T01:31:50.219Z,48.81
2023-05-09T01:34:20.050Z,48.76
2023-05-09T01:36:51.239Z,48.63
2023-05-09T01:39:20.784Z,48.79
2023-05-09T01:41:50.540Z,48.82
2023-05-09T01:44:19.709Z,49.00
2023-05-09T01:46:48.891Z,49.12
2023-05-09T01:49:19.488Z,48.70
2023-05-09T01:51:50.258Z,48.95
2023-05-09T01:54:19.846Z,48.91
2023-05-09T01:56:48.866Z,48.97
2023-05-09T01:59:18.437Z,49.06
2023-05-09T02:01:48.358Z,49.17
2023-05-09T02:04:19.064Z,49.43
2023-05-09T02:06:53.468Z,49.51
2023-05-09T02:09:22.411Z,49.45
2023-05-09T02:11:50.894Z,48.88
2023-05-09T02:14:19.131Z,48.75
2023-05-09T02:16:47.432Z,48.76
2023-05-09T02:19:15.642Z,49.21
2023-05-09T02:21:44.039Z,49.19
2023-05-09T02:24:12.516Z,49.02
2023-05-09T02:26:42.431Z,48.84
2023-05-09T02:29:13.130Z,48.62
2023-05-09T02:31:43.702Z,48.84
2023-05-09T02:34:13.233Z,48.95
2023-05-09T02:36:41.956Z,48.64
2023-05-09T02:39:10.574Z,48.51
2023-05-09T02:41:38.816Z,48.56
2023-05-09T02:44:07.039Z,48.71
2023-05-09T02:46:35.468Z,48.62
2023-05-09T02:49:03.724Z,48.41
2023-05-09T02:51:32.000Z,48.51
2023-05-09T02:54:00.172Z,48.26
2023-05-09T02:56:28.391Z,48.54
2023-05-09T02:58:57.015Z,48.33
2023-05-09T03:01:25.264Z,48.28
2023-05-09T03:03:53.656Z,48.43
2023-05-09T03:06:21.856Z,47.95
2023-05-09T03:08:50.054Z,48.26
2023-05-09T03:11:18.247Z,47.89
2023-05-09T03:13:46.721Z,48.08
2023-05-09T03:16:16.552Z,47.92
2023-05-09T03:18:44.841Z,48.00
2023-05-09T03:21:13.626Z,48.47
2023-05-09T03:23:41.883Z,48.77
2023-05-09T03:26:10.081Z,49.00
2023-05-09T03:28:39.091Z,49.07
2023-05-09T03:31:07.400Z,49.29
2023-05-09T03:33:35.655Z,49.53
2023-05-09T03:36:03.858Z,49.83
2023-05-09T03:38:32.284Z,49.84
2023-05-09T03:41:00.513Z,50.07
2023-05-09T03:43:28.732Z,50.26
2023-05-09T03:45:56.992Z,50.37
2023-05-09T03:48:25.213Z,50.35
2023-05-09T03:50:53.446Z,50.18
2023-05-09T03:53:21.689Z,50.18
2023-05-09T03:55:50.041Z,50.25
2023-05-09T03:58:20.182Z,50.28
2023-05-09T04:00:48.970Z,50.27
2023-05-09T04:03:17.363Z,50.18
2023-05-09T04:05:45.670Z,50.53
2023-05-09T04:08:13.940Z,50.29
2023-05-09T04:10:42.184Z,50.44
2023-05-09T04:13:10.432Z,50.81
2023-05-09T04:15:38.707Z,50.83
2023-05-09T04:18:07.458Z,50.88
2023-05-09T04:20:35.859Z,51.09
2023-05-09T04:23:04.058Z,51.27
2023-05-09T04:25:32.504Z,51.78
2023-05-09T04:28:00.710Z,51.49
2023-05-09T04:30:28.907Z,51.65
2023-05-09T04:32:57.164Z,51.51
2023-05-09T04:35:25.367Z,51.72
2023-05-09T04:37:53.780Z,51.73
2023-05-09T04:40:22.026Z,51.85
2023-05-09T04:42:50.638Z,52.21
2023-05-09T04:45:18.931Z,52.07
2023-05-09T04:47:47.330Z,52.00
2023-05-09T04:50:15.607Z,52.23
2023-05-09T04:52:43.814Z,52.39
2023-05-09T04:55:12.162Z,52.10
2023-05-09T04:57:40.659Z,52.10
2023-05-09T05:00:12.199Z,52.32
2023-05-09T05:02:40.435Z,52.21
2023-05-09T05:05:11.969Z,52.36
2023-05-09T05:07:40.913Z,52.07
2023-05-09T05:10:09.636Z,52.37
2023-05-09T05:12:37.888Z,52.42
2023-05-09T05:15:06.687Z,52.46
2023-05-09T05:17:34.914Z,52.40
2023-05-09T05:20:03.996Z,52.76
2023-05-09T05:22:32.858Z,52.77
2023-05-09T05:25:01.227Z,52.57
2023-05-09T05:27:29.465Z,52.90
2023-05-09T05:29:57.924Z,53.05
2023-05-09T05:32:26.219Z,53.02
2023-05-09T05:34:54.393Z,52.68
2023-05-09T05:37:22.627Z,52.90
2023-05-09T05:39:52.437Z,53.15
2023-05-09T05:42:20.637Z,53.02
2023-05-09T05:44:49.167Z,52.93
2023-05-09T05:47:17.381Z,53.01
2023-05-09T05:49:46.246Z,52.96
2023-05-09T05:52:15.067Z,53.36
2023-05-09T05:54:43.304Z,53.21
2023-05-09T05:57:11.716Z,53.37
2023-05-09T05:59:39.912Z,53.45
2023-05-09T06:02:08.160Z,53.48
2023-05-09T06:04:36.409Z,53.43
2023-05-09T06:07:04.757Z,53.68
2023-05-09T06:09:32.922Z,53.94
2023-05-09T06:12:01.096Z,54.21
2023-05-09T06:14:29.284Z,54.35
2023-05-09T06:16:57.723Z,54.52
2023-05-09T06:19:26.344Z,54.58
2023-05-09T06:21:54.513Z,54.92
2023-05-09T06:24:34.567Z,55.06
2023-05-09T06:27:03.889Z,55.22
2023-05-09T06:29:32.085Z,55.05
2023-05-09T06:32:00.466Z,55.32
2023-05-09T06:34:28.717Z,55.88
2023-05-09T06:36:56.931Z,55.53
2023-05-09T06:39:25.123Z,55.69
2023-05-09T06:41:53.334Z,55.97
2023-05-09T06:44:21.587Z,56.37
2023-05-09T06:46:50.400Z,56.68
2023-05-09T06:49:18.665Z,56.49
2023-05-09T06:51:47.168Z,56.56
2023-05-09T06:54:15.403Z,56.44
2023-05-09T06:56:43.707Z,56.57
2023-05-09T06:59:17.166Z,57.02
2023-05-09T07:01:45.372Z,57.08
2023-05-09T07:04:13.678Z,56.96
2023-05-09T07:06:41.885Z,56.84
2023-05-09T07:09:10.666Z,56.95
2023-05-09T07:11:38.952Z,57.43
2023-05-09T07:14:07.136Z,57.34
2023-05-09T07:16:37.400Z,57.52
2023-05-09T07:19:06.116Z,57.27
2023-05-09T07:21:35.237Z,57.11
2023-05-09T07:24:03.404Z,57.54
2023-05-09T07:26:31.919Z,57.64
2023-05-09T07:29:00.288Z,57.78
2023-05-09T07:31:28.619Z,57.71
2023-05-09T07:33:56.861Z,57.80
2023-05-09T07:36:25.157Z,58.01
2023-05-09T07:38:54.322Z,58.18
2023-05-09T07:41:23.311Z,58.96
2023-05-09T07:43:51.588Z,58.79
2023-05-09T07:46:19.922Z,59.00
2023-05-09T07:48:48.560Z,59.03
2023-05-09T07:51:16.999Z,59.08
2023-05-09T07:53:45.177Z,59.32
2023-05-09T07:56:14.247Z,59.32
2023-05-09T07:58:42.481Z,59.65
2023-05-09T08:01:11.046Z,59.10
2023-05-09T08:03:39.334Z,59.85
2023-05-09T08:06:07.781Z,59.71
2023-05-09T08:08:37.708Z,59.64
2023-05-09T08:11:07.180Z,59.87
2023-05-09T08:13:35.392Z,60.48
2023-05-09T08:16:03.783Z,60.36
2023-05-09T08:18:32.017Z,60.56
2023-05-09T08:21:00.515Z,60.71
2023-05-09T08:23:28.813Z,60.62
2023-05-09T08:25:57.635Z,60.81
2023-05-09T08:28:25.803Z,61.16
2023-05-09T08:30:54.081Z,60.95
2023-05-09T08:33:22.292Z,60.84
2023-05-09T08:35:54.378Z,60.85
2023-05-09T08:38:22.625Z,61.29
2023-05-09T08:40:50.939Z,61.43
2023-05-09T08:43:21.067Z,61.58
2023-05-09T08:45:55.443Z,61.49
2023-05-09T08:48:24.341Z,61.44
2023-05-09T08:50:53.185Z,61.84
2023-05-09T08:53:22.964Z,62.22
2023-05-09T08:55:54.650Z,62.14
2023-05-09T08:58:23.465Z,62.04
2023-05-09T09:00:51.749Z,62.23
2023-05-09T09:03:20.165Z,62.29
2023-05-09T09:05:50.490Z,62.59
2023-05-09T09:08:19.694Z,62.24
2023-05-09T09:10:48.510Z,62.66
2023-05-09T09:13:18.545Z,62.63
2023-05-09T09:15:48.480Z,62.68
2023-05-09T09:18:29.377Z,62.25
2023-05-09T09:21:13.397Z,62.60
2023-05-09T09:23:44.150Z,62.79
2023-05-09T09:26:12.433Z,62.97
2023-05-09T09:28:41.036Z,63.15
2023-05-09T09:31:26.476Z,62.77
2023-05-09T09:34:02.040Z,62.89
2023-05-09T09:36:33.210Z,63.26
2023-05-09T09:39:03.245Z,63.04
2023-05-09T09:41:35.950Z,62.85
2023-05-09T09:44:12.410Z,62.81
2023-05-09T09:46:49.345Z,62.86
2023-05-09T09:49:22.712Z,62.91
2023-05-09T09:51:59.068Z,62.96
2023-05-09T09:54:30.397Z,63.05
2023-05-09T09:56:58.574Z,63.24
2023-05-09T09:59:28.240Z,63.36
2023-05-09T10:02:07.562Z,63.10
2023-05-09T10:04:38.327Z,63.71
2023-05-09T10:07:08.334Z,63.40
2023-05-09T10:09:38.835Z,63.51
2023-05-09T10:12:09.068Z,63.22
2023-05-09T10:14:39.640Z,63.09
2023-05-09T10:17:08.276Z,63.13
2023-05-09T10:19:39.113Z,63.53
2023-05-09T10:22:12.706Z,63.28
2023-05-09T10:24:58.086Z,63.17
2023-05-09T10:27:30.363Z,63.46
2023-05-09T10:30:23.407Z,63.54
2023-05-09T10:33:13.220Z,63.25
2023-05-09T10:35:49.181Z,63.71
2023-05-09T10:38:18.244Z,63.35
2023-05-09T10:40:49.041Z,63.49
2023-05-09T10:43:17.552Z,63.66
2023-05-09T10:45:46.109Z,63.55
2023-05-09T10:48:15.284Z,63.81
2023-05-09T10:50:44.440Z,63.54
2023-05-09T10:53:14.903Z,63.75
2023-05-09T10:55:48.858Z,63.93
2023-05-09T10:58:28.745Z,63.94
2023-05-09T11:00:59.344Z,64.01
2023-05-09T11:03:29.424Z,63.89
2023-05-09T11:05:59.153Z,63.91
2023-05-09T11:08:29.142Z,64.04
2023-05-09T11:11:01.339Z,64.00
2023-05-09T11:13:33.081Z,64.23
2023-05-09T11:16:03.915Z,63.92
2023-05-09T11:18:33.642Z,64.06
2023-05-09T11:21:10.421Z,64.34
2023-05-09T11:23:40.129Z,64.35
2023-05-09T11:26:10.273Z,64.38
2023-05-09T11:28:40.065Z,64.54
2023-05-09T11:31:18.231Z,64.66
2023-05-09T11:33:49.979Z,64.49
2023-05-09T11:36:32.585Z,64.45
2023-05-09T11:39:11.630Z,64.85
2023-05-09T11:41:48.746Z,64.54
2023-05-09T11:44:19.134Z,64.78
2023-05-09T11:46:48.942Z,64.65
2023-05-09T11:49:17.964Z,64.58
2023-05-09T11:51:46.319Z,64.78
2023-05-09T11:54:15.691Z,64.63
2023-05-09T11:56:44.128Z,64.95
2023-05-09T11:59:15.375Z,65.10
2023-05-09T12:01:43.692Z,64.86
2023-05-09T12:04:12.040Z,65.33
2023-05-09T12:06:40.476Z,65.13
2023-05-09T12:09:11.118Z,65.17
2023-05-09T12:11:39.341Z,65.12
2023-05-09T12:14:07.485Z,65.37
2023-05-09T12:16:35.842Z,64.99
2023-05-09T12:19:05.903Z,64.96
2023-05-09T12:21:34.446Z,65.11
2023-05-09T12:24:02.995Z,65.29
2023-05-09T12:26:31.901Z,65.35
2023-05-09T12:29:00.419Z,65.30
2023-05-09T12:31:29.462Z,65.26
2023-05-09T12:33:57.798Z,65.19
2023-05-09T12:36:26.820Z,65.38
2023-05-09T12:38:56.218Z,65.52
2023-05-09T12:43:56.907Z,65.47
2023-05-09T12:46:25.297Z,65.30
2023-05-09T12:48:53.647Z,65.43
2023-05-09T12:51:22.800Z,65.55
2023-05-09T12:53:51.207Z,65.76
2023-05-09T12:56:21.120Z,65.54
2023-05-09T12:58:55.042Z,65.52
2023-05-09T13:01:28.304Z,65.82
2023-05-09T13:04:08.819Z,65.82
2023-05-09T13:06:50.767Z,65.81
2023-05-09T13:09:19.870Z,65.96
2023-05-09T13:11:48.650Z,65.73
2023-05-09T13:14:16.963Z,65.84
2023-05-09T13:16:45.817Z,66.03
2023-05-09T13:19:14.302Z,66.23
2023-05-09T13:21:42.634Z,66.25
2023-05-09T13:24:10.837Z,66.15
2023-05-09T13:26:39.029Z,66.14
2023-05-09T13:29:07.283Z,66.25
2023-05-09T13:31:35.580Z,66.13
2023-05-09T13:34:03.756Z,66.10
2023-05-09T13:36:33.384Z,66.29
2023-05-09T13:39:01.661Z,66.14
2023-05-09T13:41:32.647Z,66.17
2023-05-09T13:44:00.900Z,66.27
2023-05-09T13:46:29.277Z,66.14
2023-05-09T13:48:57.633Z,66.07
2023-05-09T13:51:25.962Z,66.11
2023-05-09T13:53:54.149Z,66.27
2023-05-09T13:56:22.348Z,66.18
2023-05-09T13:58:50.640Z,66.30
2023-05-09T14:01:19.229Z,66.13
2023-05-09T14:03:49.916Z,66.04
2023-05-09T14:06:18.251Z,65.94
2023-05-09T14:08:47.080Z,65.91
2023-05-09T14:11:15.340Z,65.99
2023-05-09T14:13:43.523Z,65.67
2023-05-09T14:16:11.782Z,65.96
2023-05-09T14:18:40.074Z,65.85
2023-05-09T14:21:08.467Z,65.57
2023-05-09T14:23:36.786Z,65.51
2023-05-09T14:26:05.035Z,65.78
2023-05-09T14:28:33.510Z,65.44
2023-05-09T14:31:02.213Z,65.31
2023-05-09T14:33:30.492Z,65.46
2023-05-09T14:35:58.762Z,65.13
2023-05-09T14:38:27.029Z,64.88
2023-05-09T14:40:55.331Z,65.15
2023-05-09T14:43:23.608Z,64.78
2023-05-09T14:45:52.669Z,64.71
2023-05-09T14:48:21.218Z,64.70
2023-05-09T14:50:50.563Z,64.75
2023-05-09T14:53:18.836Z,64.33
2023-05-09T14:55:47.175Z,64.40
2023-05-09T14:58:16.916Z,64.34
2023-05-09T15:00:46.304Z,64.29
2023-05-09T15:03:14.708Z,64.59
2023-05-09T15:05:43.209Z,63.95
2023-05-09T15:08:11.569Z,64.00
2023-05-09T15:10:39.810Z,63.82
2023-05-09T15:13:08.075Z,63.37
2023-05-09T15:15:39.160Z,63.26
2023-05-09T15:18:11.017Z,63.03
2023-05-09T15:20:39.390Z,63.24
2023-05-09T15:23:08.642Z,63.29
2023-05-09T15:25:37.176Z,62.47
2023-05-09T15:28:05.473Z,62.68
2023-05-09T15:30:35.258Z,62.49
2023-05-09T15:33:04.468Z,62.28
2023-05-09T15:35:32.707Z,62.15
2023-05-09T15:38:01.890Z,62.24
2023-05-09T15:40:30.158Z,62.19
2023-05-09T15:42:59.295Z,61.90
2023-05-09T15:45:27.549Z,62.38
2023-05-09T15:47:55.849Z,62.24
2023-05-09T15:50:24.106Z,62.30
2023-05-09T15:52:53.292Z,61.85
2023-05-09T15:55:21.830Z,62.16
2023-05-09T15:57:50.123Z,61.96
2023-05-09T16:00:18.665Z,62.07
2023-05-09T16:02:47.283Z,61.95
2023-05-09T16:05:15.641Z,61.54
2023-05-09T16:07:47.095Z,61.38
2023-05-09T16:10:15.819Z,61.35
2023-05-09T16:12:44.440Z,61.35
2023-05-09T16:15:13.333Z,61.25
2023-05-09T16:17:42.051Z,61.01
2023-05-09T16:20:14.477Z,60.86
2023-05-09T16:22:43.318Z,60.48
2023-05-09T16:25:12.343Z,60.54
2023-05-09T16:27:40.581Z,60.09
2023-05-09T16:30:09.548Z,59.83
2023-05-09T16:32:37.914Z,59.90
2023-05-09T16:35:06.766Z,59.74
2023-05-09T16:37:35.716Z,59.30
2023-05-09T16:40:05.227Z,59.03
2023-05-09T16:42:33.840Z,58.89
2023-05-09T16:45:02.079Z,58.90
2023-05-09T16:47:30.341Z,58.85
2023-05-09T16:49:58.625Z,58.58
2023-05-09T16:52:27.650Z,58.66
2023-05-09T16:54:55.853Z,58.77
2023-05-09T16:57:24.047Z,58.80
2023-05-09T16:59:52.432Z,58.43
2023-05-09T17:02:20.770Z,58.41
2023-05-09T17:04:49.606Z,58.26
2023-05-09T17:07:18.013Z,57.73
2023-05-09T17:09:46.400Z,57.77
2023-05-09T17:12:18.567Z,57.50
2023-05-09T17:14:48.481Z,57.31
2023-05-09T17:17:18.490Z,57.56
2023-05-09T17:19:47.126Z,57.26
2023-05-09T17:22:15.338Z,57.04
2023-05-09T17:24:43.530Z,57.30
2023-05-09T17:27:12.272Z,57.44
2023-05-09T17:29:40.452Z,57.18
2023-05-09T17:32:08.664Z,56.74
2023-05-09T17:34:36.855Z,56.41
2023-05-09T17:37:06.590Z,56.36
2023-05-09T17:39:34.871Z,56.22
2023-05-09T17:42:03.289Z,56.00
2023-05-09T17:44:31.768Z,56.10
2023-05-09T17:47:00.054Z,55.71
2023-05-09T17:49:29.470Z,55.34
2023-05-09T17:51:57.765Z,55.47
2023-05-09T17:54:26.073Z,55.55
2023-05-09T17:56:59.815Z,54.67
2023-05-09T17:59:29.001Z,54.90
2023-05-09T18:01:57.379Z,54.78
2023-05-09T18:04:26.649Z,54.55
2023-05-09T18:06:55.063Z,54.10
2023-05-09T18:09:23.550Z,53.96
2023-05-09T18:11:51.805Z,53.55
2023-05-09T18:14:20.156Z,53.69
2023-05-09T18:16:48.719Z,53.54
2023-05-09T18:19:16.934Z,53.53
2023-05-09T18:21:45.123Z,53.24
2023-05-09T18:24:14.909Z,52.98
2023-05-09T18:26:44.582Z,53.12
2023-05-09T18:29:13.052Z,52.08
2023-05-09T18:31:42.322Z,51.54
2023-05-09T18:34:10.565Z,51.54
2023-05-09T18:36:38.871Z,52.13
2023-05-09T18:39:07.105Z,51.97
2023-05-09T18:41:35.378Z,51.51
2023-05-09T18:44:03.654Z,51.58
2023-05-09T18:46:34.329Z,51.77
2023-05-09T18:49:04.586Z,51.62
2023-05-09T18:51:33.099Z,51.61
2023-05-09T18:54:01.319Z,51.12
2023-05-09T18:56:29.552Z,50.77
2023-05-09T18:59:02.203Z,51.00
2023-05-09T19:01:30.527Z,50.97
2023-05-09T19:03:59.162Z,50.86
2023-05-09T19:06:27.861Z,51.08
2023-05-09T19:08:56.309Z,50.87
2023-05-09T19:11:24.613Z,50.66
2023-05-09T19:13:53.724Z,49.74
2023-05-09T19:16:23.317Z,49.67
2023-05-09T19:18:52.192Z,49.79
2023-05-09T19:21:20.460Z,49.89
2023-05-09T19:23:50.069Z,50.13
2023-05-09T19:26:20.677Z,49.95
2023-05-09T19:28:49.298Z,47.83
2023-05-09T19:31:19.704Z,48.97
2023-05-09T19:33:48.903Z,48.97
2023-05-09T19:36:18.642Z,48.77
2023-05-09T19:38:47.133Z,48.50
2023-05-09T19:41:15.373Z,48.68
2023-05-09T19:43:43.815Z,48.81
2023-05-09T19:46:12.110Z,48.21
2023-05-09T19:48:40.352Z,48.23
2023-05-09T19:51:09.737Z,48.64
2023-05-09T19:53:37.965Z,49.44
2023-05-09T19:56:08.756Z,49.62
2023-05-09T19:58:37.249Z,49.61
2023-05-09T20:01:08.664Z,49.51
2023-05-09T20:03:37.820Z,49.63
2023-05-09T20:06:06.630Z,50.01
2023-05-09T20:08:34.933Z,49.09
2023-05-09T20:11:04.055Z,48.98
2023-05-09T20:13:32.239Z,48.53
2023-05-09T20:16:01.103Z,47.97
2023-05-09T20:18:29.421Z,47.89
2023-05-09T20:20:57.673Z,47.00
2023-05-09T20:23:25.903Z,47.57
2023-05-09T20:25:54.169Z,46.73
2023-05-09T20:28:23.317Z,46.01
2023-05-09T20:30:51.571Z,46.05
2023-05-09T20:33:19.894Z,45.54
2023-05-09T20:35:50.078Z,45.23
2023-05-09T20:38:18.320Z,45.14
2023-05-09T20:40:46.928Z,45.27
2023-05-09T20:43:15.116Z,45.36
2023-05-09T20:45:43.931Z,44.48
2023-05-09T20:48:12.696Z,44.73
2023-05-09T20:50:40.891Z,44.41
2023-05-09T20:53:09.088Z,43.15
2023-05-09T20:55:37.340Z,43.44
2023-05-09T20:58:05.527Z,43.21
2023-05-09T21:00:33.884Z,42.23
2023-05-09T21:03:02.403Z,42.49
2023-05-09T21:05:30.728Z,42.46
2023-05-09T21:07:59.017Z,42.55
2023-05-09T21:10:27.379Z,42.67
2023-05-09T21:12:55.621Z,42.12
2023-05-09T21:15:23.837Z,42.27
2023-05-09T21:17:52.137Z,42.48
2023-05-09T21:20:20.486Z,41.79
2023-05-09T21:22:49.172Z,41.17
2023-05-09T21:25:18.322Z,40.88
2023-05-09T21:27:47.195Z,40.62
2023-05-09T21:30:15.965Z,41.35
2023-05-09T21:32:44.319Z,40.59
2023-05-09T21:35:13.910Z,41.14
2023-05-09T21:37:42.229Z,40.66
2023-05-09T21:40:10.974Z,39.95
2023-05-09T21:42:41.565Z,40.55
2023-05-09T21:45:10.090Z,40.44
2023-05-09T21:47:40.627Z,40.55
2023-05-09T21:50:09.593Z,40.44
2023-05-09T21:52:37.846Z,40.91
2023-05-09T21:55:06.538Z,41.21
2023-05-09T21:57:34.815Z,41.40
2023-05-09T22:00:05.952Z,40.97
2023-05-09T22:02:34.990Z,40.41
2023-05-09T22:05:03.507Z,41.15
2023-05-09T22:07:31.745Z,40.60
2023-05-09T22:10:04.436Z,40.31
2023-05-09T22:12:32.738Z,40.51
2023-05-09T22:15:01.025Z,40.65
2023-05-09T22:17:29.280Z,40.78
2023-05-09T22:19:57.604Z,39.81
2023-05-09T22:22:25.811Z,38.72
2023-05-09T22:24:54.440Z,39.50
2023-05-09T22:27:22.821Z,38.78
2023-05-09T22:29:51.135Z,39.98
2023-05-09T22:32:19.329Z,39.57
2023-05-09T22:34:50.685Z,39.29
2023-05-09T22:37:18.909Z,38.83
2023-05-09T22:39:47.115Z,39.34
2023-05-09T22:42:15.415Z,39.53
2023-05-09T22:44:44.091Z,38.98
2023-05-09T22:47:12.346Z,40.05
2023-05-09T22:49:40.546Z,39.25
2023-05-09T22:52:08.741Z,39.74
2023-05-09T22:54:37.128Z,40.31
2023-05-09T22:57:05.438Z,40.30
2023-05-09T22:59:34.169Z,40.54
2023-05-09T23:02:02.478Z,40.59
2023-05-09T23:04:30.759Z,40.48
2023-05-09T23:06:59.030Z,40.34
2023-05-09T23:09:27.232Z,40.87
2023-05-09T23:11:56.030Z,41.14
2023-05-09T23:14:24.264Z,41.38
2023-05-09T23:16:52.444Z,41.58
2023-05-09T23:19:20.907Z,41.76
2023-05-09T23:21:49.518Z,41.81
2023-05-09T23:24:17.802Z,41.71
2023-05-09T23:26:49.069Z,42.31
2023-05-09T23:29:17.298Z,42.07
2023-05-09T23:31:45.625Z,42.57
2023-05-09T23:34:13.943Z,42.54
2023-05-09T23:36:42.145Z,43.14
2023-05-09T23:39:10.394Z,43.12
2023-05-09T23:44:08.467Z,43.53
2023-05-09T23:46:36.798Z,43.81
2023-05-09T23:49:05.377Z,43.66
2023-05-09T23:51:33.719Z,43.53
2023-05-09T23:54:01.996Z,43.94
2023-05-09T23:56:30.216Z,44.41
2023-05-09T23:58:58.560Z,44.43
